5YPIC HKNW-HKNW
Flight info
| Callsign | 5YPIC |
|---|---|
| Flight time | N/A |
| Altitude | 12000 |
| Route | NV DCT GV |
| Aircraft | PC12/L-SDFGRWY/S |
Departure
| Time | 2026-05-08 10:11 |
|---|---|
| Airport | Nairobi Wilson Airport (HKNW) |
Arrival
| Time | N/A |
|---|---|
| Airport | Nairobi Wilson Airport (HKNW) |
| Time | Latitude | Longitude | Altitude | Speed | Heading |
|---|---|---|---|---|---|
| 2026-05-08 09:43 | -1.32045 | 36.81115 | 5528 ft | 0 kts | 217° |
| 2026-05-08 10:04 | -1.32045 | 36.81116 | 5531 ft | 0 kts | 216° |
| 2026-05-08 10:05 | -1.32045 | 36.81115 | 5531 ft | 1 kts | 218° |
| 2026-05-08 10:05 | -1.32057 | 36.81101 | 5531 ft | 4 kts | 206° |
| 2026-05-08 10:05 | -1.32069 | 36.81115 | 5530 ft | 5 kts | 59° |
| 2026-05-08 10:05 | -1.32066 | 36.81120 | 5530 ft | 6 kts | 54° |
| 2026-05-08 10:06 | -1.32030 | 36.81171 | 5529 ft | 13 kts | 57° |
| 2026-05-08 10:06 | -1.32015 | 36.81195 | 5529 ft | 0 kts | 58° |
| 2026-05-08 10:08 | -1.32014 | 36.81198 | 5529 ft | 3 kts | 58° |
| 2026-05-08 10:08 | -1.31975 | 36.81202 | 5530 ft | 9 kts | 339° |
| 2026-05-08 10:08 | -1.31920 | 36.81191 | 5532 ft | 5 kts | 37° |
| 2026-05-08 10:08 | -1.31937 | 36.81218 | 5531 ft | 7 kts | 135° |
| 2026-05-08 10:09 | -1.31938 | 36.81219 | 5531 ft | 0 kts | 134° |
| 2026-05-08 10:10 | -1.31939 | 36.81219 | 5531 ft | 0 kts | 134° |
| 2026-05-08 10:10 | -1.31941 | 36.81222 | 5530 ft | 7 kts | 134° |
| 2026-05-08 10:10 | -1.32098 | 36.81380 | 5519 ft | 60 kts | 135° |
| 2026-05-08 10:11 | -1.32500 | 36.81788 | 5518 ft | 103 kts | 134° |
| 2026-05-08 10:11 | -1.33047 | 36.82354 | 5749 ft | 123 kts | 139° |
| 2026-05-08 10:11 | -1.33822 | 36.82634 | 6291 ft | 126 kts | 189° |
| 2026-05-08 10:11 | -1.34529 | 36.82093 | 6731 ft | 134 kts | 244° |
| 2026-05-08 10:12 | -1.34497 | 36.81202 | 7175 ft | 137 kts | 294° |
| 2026-05-08 10:12 | -1.34059 | 36.80327 | 7587 ft | 146 kts | 302° |
| 2026-05-08 10:12 | -1.33579 | 36.79411 | 8034 ft | 153 kts | 278° |
| 2026-05-08 10:12 | -1.33924 | 36.78430 | 8408 ft | 160 kts | 223° |
| 2026-05-08 10:13 | -1.34956 | 36.78132 | 8795 ft | 159 kts | 168° |
| 2026-05-08 10:13 | -1.35861 | 36.78752 | 9223 ft | 163 kts | 136° |
| 2026-05-08 10:13 | -1.36806 | 36.79363 | 9641 ft | 165 kts | 164° |
| 2026-05-08 10:13 | -1.37908 | 36.79163 | 10056 ft | 169 kts | 214° |
| 2026-05-08 10:14 | -1.38469 | 36.78153 | 10449 ft | 174 kts | 263° |
| 2026-05-08 10:14 | -1.38273 | 36.76956 | 10838 ft | 177 kts | 282° |
| 2026-05-08 10:14 | -1.37957 | 36.75743 | 11258 ft | 185 kts | 283° |
| 2026-05-08 10:14 | -1.37629 | 36.74470 | 11666 ft | 193 kts | 283° |
| 2026-05-08 10:15 | -1.37292 | 36.73148 | 12069 ft | 200 kts | 283° |
| 2026-05-08 10:15 | -1.36951 | 36.71808 | 12478 ft | 205 kts | 283° |
| 2026-05-08 10:15 | -1.36576 | 36.70376 | 12747 ft | 217 kts | 285° |
| 2026-05-08 10:15 | -1.36103 | 36.68871 | 12747 ft | 236 kts | 287° |
| 2026-05-08 10:16 | -1.35581 | 36.67268 | 12749 ft | 249 kts | 287° |
| 2026-05-08 10:16 | -1.35181 | 36.65557 | 12745 ft | 255 kts | 276° |
| 2026-05-08 10:16 | -1.35161 | 36.63782 | 12737 ft | 260 kts | 262° |
| 2026-05-08 10:16 | -1.35504 | 36.61979 | 12729 ft | 265 kts | 256° |
| 2026-05-08 10:17 | -1.35902 | 36.60167 | 12720 ft | 270 kts | 257° |
| 2026-05-08 10:17 | -1.36222 | 36.58307 | 12704 ft | 272 kts | 259° |
| 2026-05-08 10:17 | -1.36509 | 36.56430 | 12701 ft | 274 kts | 260° |
| 2026-05-08 10:17 | -1.36815 | 36.54563 | 12689 ft | 275 kts | 259° |
| 2026-05-08 10:18 | -1.37142 | 36.52672 | 12685 ft | 276 kts | 258° |
| 2026-05-08 10:18 | -1.37466 | 36.50781 | 12673 ft | 276 kts | 259° |
| 2026-05-08 10:18 | -1.37787 | 36.48882 | 12663 ft | 276 kts | 259° |
| 2026-05-08 10:18 | -1.38106 | 36.46987 | 12651 ft | 277 kts | 259° |
| 2026-05-08 10:19 | -1.38427 | 36.45095 | 12642 ft | 276 kts | 259° |
| 2026-05-08 10:19 | -1.38749 | 36.43201 | 12643 ft | 277 kts | 259° |
| 2026-05-08 10:19 | -1.39069 | 36.41309 | 12641 ft | 276 kts | 260° |
| 2026-05-08 10:20 | -1.39712 | 36.37520 | 12642 ft | 276 kts | 259° |
| 2026-05-08 10:20 | -1.40032 | 36.35631 | 12637 ft | 276 kts | 259° |
| 2026-05-08 10:20 | -1.40347 | 36.33772 | 12633 ft | 275 kts | 259° |
| 2026-05-08 10:20 | -1.40672 | 36.31857 | 12636 ft | 275 kts | 259° |
| 2026-05-08 10:21 | -1.40987 | 36.29996 | 12633 ft | 275 kts | 259° |
| 2026-05-08 10:21 | -1.41306 | 36.28113 | 12632 ft | 275 kts | 259° |
| 2026-05-08 10:21 | -1.41630 | 36.26206 | 12635 ft | 275 kts | 259° |
| 2026-05-08 10:21 | -1.41939 | 36.24385 | 12636 ft | 275 kts | 259° |
| 2026-05-08 10:22 | -1.42264 | 36.22465 | 12635 ft | 275 kts | 259° |
| 2026-05-08 10:22 | -1.42583 | 36.20581 | 12634 ft | 274 kts | 259° |
| 2026-05-08 10:22 | -1.42901 | 36.18704 | 12637 ft | 275 kts | 259° |
| 2026-05-08 10:22 | -1.43217 | 36.16838 | 12638 ft | 274 kts | 259° |
| 2026-05-08 10:23 | -1.43537 | 36.14950 | 12632 ft | 272 kts | 259° |
| 2026-05-08 10:23 | -1.43851 | 36.13095 | 12636 ft | 269 kts | 259° |
| 2026-05-08 10:23 | -1.44162 | 36.11258 | 12637 ft | 268 kts | 259° |
| 2026-05-08 10:23 | -1.44473 | 36.09423 | 12633 ft | 267 kts | 259° |
| 2026-05-08 10:24 | -1.44787 | 36.07572 | 12639 ft | 267 kts | 259° |
| 2026-05-08 10:24 | -1.45092 | 36.05768 | 12636 ft | 266 kts | 259° |
| 2026-05-08 10:24 | -1.45401 | 36.03946 | 12640 ft | 266 kts | 259° |
| 2026-05-08 10:24 | -1.45709 | 36.02128 | 12639 ft | 265 kts | 259° |
| 2026-05-08 10:25 | -1.46017 | 36.00309 | 12639 ft | 266 kts | 259° |
| 2026-05-08 10:25 | -1.46321 | 35.98514 | 12637 ft | 266 kts | 259° |
| 2026-05-08 10:25 | -1.46633 | 35.96668 | 12641 ft | 266 kts | 259° |
| 2026-05-08 10:25 | -1.46941 | 35.94855 | 12641 ft | 266 kts | 259° |
| 2026-05-08 10:26 | -1.47250 | 35.93027 | 12639 ft | 265 kts | 259° |
| 2026-05-08 10:26 | -1.47558 | 35.91209 | 12643 ft | 266 kts | 259° |
| 2026-05-08 10:26 | -1.47867 | 35.89387 | 12642 ft | 266 kts | 259° |
| 2026-05-08 10:26 | -1.48174 | 35.87571 | 12639 ft | 265 kts | 259° |
| 2026-05-08 10:27 | -1.48481 | 35.85757 | 12641 ft | 265 kts | 259° |
| 2026-05-08 10:27 | -1.48787 | 35.83944 | 12643 ft | 265 kts | 259° |
| 2026-05-08 10:27 | -1.49096 | 35.82122 | 12638 ft | 265 kts | 259° |
| 2026-05-08 10:27 | -1.49404 | 35.80309 | 12645 ft | 265 kts | 259° |
| 2026-05-08 10:28 | -1.49709 | 35.78501 | 12636 ft | 265 kts | 259° |
| 2026-05-08 10:28 | -1.50017 | 35.76682 | 12636 ft | 264 kts | 259° |
| 2026-05-08 10:28 | -1.50324 | 35.74867 | 12638 ft | 265 kts | 259° |
| 2026-05-08 10:28 | -1.50632 | 35.73050 | 12577 ft | 267 kts | 260° |
| 2026-05-08 10:29 | -1.50946 | 35.71193 | 12372 ft | 273 kts | 260° |
| 2026-05-08 10:29 | -1.51262 | 35.69324 | 12156 ft | 272 kts | 260° |
| 2026-05-08 10:29 | -1.51572 | 35.67482 | 11943 ft | 266 kts | 259° |
| 2026-05-08 10:29 | -1.51879 | 35.65673 | 11721 ft | 262 kts | 259° |
| 2026-05-08 10:30 | -1.52182 | 35.63887 | 11504 ft | 259 kts | 259° |
| 2026-05-08 10:30 | -1.52481 | 35.62125 | 11290 ft | 257 kts | 259° |
| 2026-05-08 10:30 | -1.52777 | 35.60374 | 11076 ft | 255 kts | 260° |
| 2026-05-08 10:30 | -1.53068 | 35.58646 | 10861 ft | 251 kts | 259° |
| 2026-05-08 10:31 | -1.53357 | 35.56940 | 10649 ft | 248 kts | 259° |
| 2026-05-08 10:31 | -1.53642 | 35.55253 | 10440 ft | 245 kts | 259° |
| 2026-05-08 10:31 | -1.53922 | 35.53602 | 10235 ft | 242 kts | 259° |
| 2026-05-08 10:31 | -1.54202 | 35.51944 | 10019 ft | 237 kts | 259° |
| 2026-05-08 10:32 | -1.54471 | 35.50354 | 9799 ft | 234 kts | 259° |
| 2026-05-08 10:32 | -1.54740 | 35.48765 | 9585 ft | 230 kts | 260° |
| 2026-05-08 10:32 | -1.55005 | 35.47197 | 9387 ft | 228 kts | 259° |
| 2026-05-08 10:32 | -1.55267 | 35.45647 | 9186 ft | 225 kts | 260° |
| 2026-05-08 10:33 | -1.55527 | 35.44108 | 8984 ft | 223 kts | 259° |
| 2026-05-08 10:33 | -1.55782 | 35.42598 | 8785 ft | 217 kts | 260° |
| 2026-05-08 10:33 | -1.56031 | 35.41128 | 8590 ft | 213 kts | 260° |
| 2026-05-08 10:33 | -1.56276 | 35.39677 | 8395 ft | 211 kts | 259° |
| 2026-05-08 10:34 | -1.56520 | 35.38235 | 8201 ft | 209 kts | 259° |
| 2026-05-08 10:34 | -1.56761 | 35.36811 | 8001 ft | 207 kts | 259° |
| 2026-05-08 10:34 | -1.56998 | 35.35408 | 7814 ft | 203 kts | 260° |
| 2026-05-08 10:34 | -1.57230 | 35.34032 | 7627 ft | 197 kts | 260° |
| 2026-05-08 10:35 | -1.57452 | 35.32716 | 7479 ft | 186 kts | 260° |
| 2026-05-08 10:35 | -1.57661 | 35.31481 | 7334 ft | 175 kts | 260° |
| 2026-05-08 10:35 | -1.57858 | 35.30312 | 7187 ft | 166 kts | 260° |
| 2026-05-08 10:35 | -1.58046 | 35.29199 | 7042 ft | 159 kts | 260° |
| 2026-05-08 10:36 | -1.58231 | 35.28116 | 6853 ft | 158 kts | 259° |
| 2026-05-08 10:36 | -1.58420 | 35.27032 | 6657 ft | 156 kts | 261° |
| 2026-05-08 10:36 | -1.58459 | 35.25969 | 6559 ft | 151 kts | 274° |
| 2026-05-08 10:36 | -1.58351 | 35.24943 | 6537 ft | 146 kts | 276° |
| 2026-05-08 10:37 | -1.58273 | 35.23931 | 6511 ft | 145 kts | 272° |
| 2026-05-08 10:37 | -1.57959 | 35.23001 | 6498 ft | 144 kts | 311° |
| 2026-05-08 10:37 | -1.57072 | 35.22600 | 6435 ft | 148 kts | 359° |
| 2026-05-08 10:37 | -1.56065 | 35.22714 | 6462 ft | 143 kts | 22° |
| 2026-05-08 10:38 | -1.55357 | 35.23392 | 6407 ft | 147 kts | 70° |
| 2026-05-08 10:38 | -1.55337 | 35.24390 | 6345 ft | 148 kts | 104° |
| 2026-05-08 10:38 | -1.55658 | 35.25369 | 6272 ft | 149 kts | 111° |
| 2026-05-08 10:38 | -1.56053 | 35.26327 | 6192 ft | 146 kts | 114° |
| 2026-05-08 10:39 | -1.56433 | 35.27212 | 6199 ft | 131 kts | 110° |
| 2026-05-08 10:39 | -1.56737 | 35.28049 | 6167 ft | 121 kts | 118° |
| 2026-05-08 10:39 | -1.57383 | 35.28528 | 6197 ft | 121 kts | 173° |
| 2026-05-08 10:39 | -1.58210 | 35.28342 | 6173 ft | 119 kts | 214° |
| 2026-05-08 10:40 | -1.58652 | 35.27690 | 5984 ft | 116 kts | 255° |
| 2026-05-08 10:40 | -1.58720 | 35.26885 | 5699 ft | 116 kts | 272° |
| 2026-05-08 10:40 | -1.58665 | 35.26138 | 5560 ft | 96 kts | 273° |
| 2026-05-08 10:40 | -1.58635 | 35.25765 | 5539 ft | 13 kts | 275° |
| 2026-05-08 10:41 | -1.58626 | 35.25679 | 5533 ft | 14 kts | 277° |
| 2026-05-08 10:41 | -1.58627 | 35.25596 | 5528 ft | 3 kts | 261° |
| 2026-05-08 10:41 | -1.58619 | 35.25585 | 5527 ft | 1 kts | 355° |
| 2026-05-08 10:41 | -1.58617 | 35.25586 | 5527 ft | 0 kts | 32° |
| 2026-05-08 10:42 | -1.58613 | 35.25605 | 5528 ft | 7 kts | 108° |
| 2026-05-08 10:42 | -1.58625 | 35.25669 | 5533 ft | 11 kts | 96° |
| 2026-05-08 10:42 | -1.58632 | 35.25758 | 5538 ft | 15 kts | 94° |
| 2026-05-08 10:42 | -1.58641 | 35.25860 | 5544 ft | 13 kts | 95° |
| 2026-05-08 10:43 | -1.58600 | 35.25900 | 5547 ft | 3 kts | 2° |
| 2026-05-08 10:43 | -1.58597 | 35.25900 | 5547 ft | 0 kts | 2° |
| 2026-05-08 10:50 | -1.58598 | 35.25900 | 5547 ft | 0 kts | 2° |
| 2026-05-08 11:25 | -1.58599 | 35.25900 | 5548 ft | 0 kts | 2° |